createdAt,value
2018-10-21T00:02:15.873Z,15.43
2018-10-21T00:04:44.188Z,16.67
2018-10-21T00:07:12.464Z,16.20
2018-10-21T00:09:40.764Z,15.73
2018-10-21T00:12:09.006Z,15.60
2018-10-21T00:14:37.237Z,16.50
2018-10-21T00:17:05.480Z,15.90
2018-10-21T00:19:33.741Z,16.37
2018-10-21T00:22:02.029Z,16.03
2018-10-21T00:24:30.284Z,17.10
2018-10-21T00:26:58.594Z,17.03
2018-10-21T00:29:26.796Z,14.83
2018-10-21T00:31:55.065Z,15.37
2018-10-21T00:34:23.312Z,15.80
2018-10-21T00:36:51.516Z,18.67
2018-10-21T00:39:19.769Z,15.20
2018-10-21T00:41:47.986Z,17.47
2018-10-21T00:44:16.234Z,15.63
2018-10-21T00:46:44.477Z,16.10
2018-10-21T00:49:12.736Z,14.20
2018-10-21T00:51:41.051Z,16.73
2018-10-21T00:54:15.343Z,13.57
2018-10-21T00:56:45.022Z,15.13
2018-10-21T00:59:13.325Z,15.63
2018-10-21T01:01:42.748Z,15.33
2018-10-21T01:04:11.031Z,19.33
2018-10-21T01:06:39.388Z,15.50
2018-10-21T01:09:11.448Z,15.87
2018-10-21T01:11:40.495Z,18.50
2018-10-21T01:14:08.754Z,18.90
2018-10-21T01:16:37.039Z,19.25
2018-10-21T01:19:05.983Z,15.27
2018-10-21T01:21:34.340Z,20.17
2018-10-21T01:24:02.660Z,16.57
2018-10-21T01:26:30.902Z,15.37
2018-10-21T01:28:59.139Z,15.97
2018-10-21T01:31:27.371Z,14.70
2018-10-21T01:33:55.616Z,16.77
2018-10-21T01:36:24.191Z,17.07
2018-10-21T01:38:52.336Z,15.87
2018-10-21T01:41:20.538Z,19.50
2018-10-21T01:43:48.795Z,18.50
2018-10-21T01:46:17.094Z,18.50
2018-10-21T01:48:45.345Z,18.63
2018-10-21T01:51:13.645Z,19.87
2018-10-21T01:53:41.902Z,17.90
2018-10-21T01:56:10.107Z,21.00
2018-10-21T01:58:38.353Z,19.47
2018-10-21T02:01:06.568Z,22.13
2018-10-21T02:03:34.808Z,20.77
2018-10-21T02:06:03.156Z,19.42
2018-10-21T02:08:31.404Z,21.90
2018-10-21T02:10:59.657Z,22.13
2018-10-21T02:13:28.296Z,24.77
2018-10-21T02:15:56.549Z,24.23
2018-10-21T02:18:24.792Z,21.47
2018-10-21T02:20:53.019Z,20.53
2018-10-21T02:23:21.275Z,24.12
2018-10-21T02:25:49.527Z,23.98
2018-10-21T02:28:17.748Z,22.37
2018-10-21T02:30:46.027Z,23.00
2018-10-21T02:33:14.350Z,23.20
2018-10-21T02:35:42.524Z,22.47
2018-10-21T02:38:10.874Z,23.30
2018-10-21T02:41:47.884Z,25.55
2018-10-21T02:44:17.393Z,25.40
2018-10-21T02:46:46.199Z,31.42
2018-10-21T02:49:15.133Z,21.33
2018-10-21T02:51:43.340Z,26.57
2018-10-21T02:54:11.925Z,28.67
2018-10-21T02:56:40.175Z,24.07
2018-10-21T02:59:08.426Z,22.63
2018-10-21T03:01:36.699Z,27.37
2018-10-21T03:04:04.964Z,28.87
2018-10-21T03:06:33.172Z,27.70
2018-10-21T03:09:01.548Z,27.60
2018-10-21T03:11:29.732Z,30.68
2018-10-21T03:13:58.004Z,34.87
2018-10-21T03:16:26.278Z,29.90
2018-10-21T03:18:54.504Z,31.93
2018-10-21T03:21:22.824Z,30.03
2018-10-21T03:23:51.039Z,32.23
2018-10-21T03:26:19.282Z,29.43
2018-10-21T03:28:47.558Z,33.37
2018-10-21T03:31:15.816Z,28.63
2018-10-21T03:33:44.152Z,32.20
2018-10-21T03:36:12.381Z,28.80
2018-10-21T03:38:40.636Z,31.60
2018-10-21T03:41:08.912Z,28.23
2018-10-21T03:43:37.117Z,29.23
2018-10-21T03:46:05.494Z,31.70
2018-10-21T03:48:33.656Z,29.63
2018-10-21T03:51:02.531Z,30.73
2018-10-21T03:53:30.848Z,35.65
2018-10-21T03:55:59.093Z,33.57
2018-10-21T03:58:27.351Z,30.27
2018-10-21T04:00:55.612Z,30.00
2018-10-21T04:03:23.882Z,31.70
2018-10-21T04:05:52.116Z,31.23
2018-10-21T04:08:20.378Z,30.53
2018-10-21T04:10:48.616Z,29.27
2018-10-21T04:13:16.867Z,28.30
2018-10-21T04:15:45.123Z,29.92
2018-10-21T04:18:13.393Z,33.23
2018-10-21T04:20:41.665Z,31.87
2018-10-21T04:23:09.913Z,29.67
2018-10-21T04:25:39.003Z,34.73
2018-10-21T04:28:07.921Z,31.90
2018-10-21T04:30:37.544Z,29.70
2018-10-21T04:34:10.180Z,28.23
2018-10-21T04:36:38.357Z,29.70
2018-10-21T04:39:18.008Z,29.40
2018-10-21T04:41:46.246Z,32.30
2018-10-21T04:44:14.596Z,31.47
2018-10-21T04:46:42.940Z,31.00
2018-10-21T04:49:11.151Z,28.17
2018-10-21T04:51:39.367Z,29.00
2018-10-21T04:54:07.615Z,29.27
2018-10-21T04:56:35.862Z,29.43
2018-10-21T04:59:04.120Z,29.33
2018-10-21T05:01:32.347Z,33.47
2018-10-21T05:04:00.638Z,30.93
2018-10-21T05:06:28.871Z,32.50
2018-10-21T05:08:57.127Z,30.97
2018-10-21T05:11:25.384Z,31.43
2018-10-21T05:13:53.612Z,33.27
2018-10-21T05:16:21.851Z,33.08
2018-10-21T05:18:50.052Z,30.93
2018-10-21T05:21:18.316Z,31.20
2018-10-21T05:23:46.608Z,29.97
2018-10-21T05:26:14.848Z,34.83
2018-10-21T05:28:43.105Z,32.47
2018-10-21T05:31:11.321Z,32.73
2018-10-21T05:33:39.539Z,30.33
2018-10-21T05:36:07.800Z,30.73
2018-10-21T05:38:36.044Z,31.33
2018-10-21T05:41:04.293Z,32.67
2018-10-21T05:43:32.514Z,39.53
2018-10-21T05:46:00.800Z,34.90
2018-10-21T05:48:29.078Z,32.77
2018-10-21T05:50:57.336Z,33.93
2018-10-21T05:53:25.587Z,31.60
2018-10-21T05:55:53.807Z,32.57
2018-10-21T05:58:22.132Z,36.43
2018-10-21T06:00:50.304Z,34.57
2018-10-21T06:03:19.163Z,33.17
2018-10-21T06:05:48.716Z,35.83
2018-10-21T06:08:16.976Z,35.50
2018-10-21T06:10:45.594Z,34.97
2018-10-21T06:13:14.110Z,36.25
2018-10-21T06:15:42.408Z,35.93
2018-10-21T06:18:14.670Z,37.05
2018-10-21T06:20:45.484Z,39.13
2018-10-21T06:23:13.732Z,34.93
2018-10-21T06:25:41.969Z,37.53
2018-10-21T06:28:10.300Z,37.20
2018-10-21T06:30:38.564Z,39.27
2018-10-21T06:33:07.922Z,36.30
2018-10-21T06:35:36.142Z,37.77
2018-10-21T06:38:04.704Z,36.43
2018-10-21T06:40:32.995Z,38.57
2018-10-21T06:43:01.244Z,40.13
2018-10-21T06:45:29.557Z,42.45
2018-10-21T06:47:57.779Z,38.07
2018-10-21T06:50:25.996Z,40.97
2018-10-21T06:52:55.104Z,37.07
2018-10-21T06:55:23.376Z,42.43
2018-10-21T06:57:51.724Z,38.10
2018-10-21T07:00:19.925Z,38.27
2018-10-21T07:02:48.189Z,37.53
2018-10-21T07:05:27.830Z,39.23
2018-10-21T07:07:56.072Z,39.00
2018-10-21T07:10:24.329Z,37.17
2018-10-21T07:12:52.580Z,38.75
2018-10-21T07:15:21.092Z,38.97
2018-10-21T07:17:49.317Z,37.20
2018-10-21T07:20:17.551Z,36.80
2018-10-21T07:22:46.060Z,38.50
2018-10-21T07:25:14.327Z,41.97
2018-10-21T07:27:42.790Z,39.40
2018-10-21T07:30:12.371Z,43.37
2018-10-21T07:32:41.431Z,41.67
2018-10-21T07:35:11.711Z,42.78
2018-10-21T07:37:40.383Z,43.27
2018-10-21T07:40:09.215Z,44.65
2018-10-21T07:42:37.404Z,42.10
2018-10-21T07:45:05.980Z,42.38
2018-10-21T07:47:34.816Z,44.87
2018-10-21T07:50:03.232Z,43.40
2018-10-21T07:52:31.451Z,41.47
2018-10-21T07:54:59.729Z,43.87
2018-10-21T07:57:27.972Z,44.08
2018-10-21T07:59:56.240Z,44.33
2018-10-21T08:02:24.497Z,46.40
2018-10-21T08:04:52.821Z,47.90
2018-10-21T08:07:32.521Z,44.10
2018-10-21T08:10:00.816Z,45.57
2018-10-21T08:12:28.996Z,44.87
2018-10-21T08:14:57.280Z,44.77
2018-10-21T08:17:25.520Z,44.98
2018-10-21T08:19:53.751Z,47.33
2018-10-21T08:22:21.992Z,50.33
2018-10-21T08:24:50.745Z,50.98
2018-10-21T08:27:19.093Z,51.08
2018-10-21T08:29:47.331Z,48.03
2018-10-21T08:32:15.579Z,47.62
2018-10-21T08:34:43.832Z,48.23
2018-10-21T08:37:12.056Z,47.25
2018-10-21T08:39:40.326Z,48.63
2018-10-21T08:42:08.588Z,48.70
2018-10-21T08:44:37.445Z,47.43
2018-10-21T08:47:05.980Z,48.17
2018-10-21T08:49:34.213Z,48.38
2018-10-21T08:52:02.517Z,47.10
2018-10-21T08:54:30.758Z,48.58
2018-10-21T08:56:59.052Z,48.38
2018-10-21T08:59:27.360Z,45.98
2018-10-21T09:01:55.664Z,47.75
2018-10-21T09:04:24.020Z,48.48
2018-10-21T09:06:53.080Z,48.25
2018-10-21T09:09:21.413Z,47.67
2018-10-21T09:11:49.752Z,47.60
2018-10-21T09:14:18.060Z,47.08
2018-10-21T09:16:46.404Z,49.70
2018-10-21T09:19:14.696Z,49.13
2018-10-21T09:21:43.057Z,46.50
2018-10-21T09:24:11.373Z,47.75
2018-10-21T09:26:39.778Z,49.80
2018-10-21T09:29:08.825Z,47.25
2018-10-21T09:31:37.101Z,48.28
2018-10-21T09:34:05.748Z,48.13
2018-10-21T09:36:33.997Z,45.23
2018-10-21T09:39:02.335Z,48.00
2018-10-21T09:41:30.607Z,46.60
2018-10-21T09:43:58.893Z,46.75
2018-10-21T09:46:27.219Z,47.98
2018-10-21T09:48:55.576Z,49.45
2018-10-21T09:51:23.887Z,47.13
2018-10-21T09:53:52.192Z,47.65
2018-10-21T09:56:20.862Z,48.05
2018-10-21T09:58:49.202Z,47.20
2018-10-21T10:01:22.816Z,46.05
2018-10-21T10:03:52.022Z,47.13
2018-10-21T10:06:20.738Z,49.63
2018-10-21T10:08:49.073Z,47.65
2018-10-21T10:11:17.807Z,47.27
2018-10-21T10:13:46.073Z,47.93
2018-10-21T10:16:14.437Z,47.48
2018-10-21T10:18:42.701Z,47.00
2018-10-21T10:21:11.044Z,45.75
2018-10-21T10:23:39.353Z,49.10
2018-10-21T10:26:07.673Z,45.98
2018-10-21T10:28:35.940Z,47.62
2018-10-21T10:31:04.277Z,47.75
2018-10-21T10:33:32.561Z,45.50
2018-10-21T10:36:00.922Z,48.25
2018-10-21T10:38:29.310Z,46.80
2018-10-21T10:40:57.613Z,47.83
2018-10-21T10:43:26.103Z,48.55
2018-10-21T10:45:54.481Z,46.23
2018-10-21T10:48:22.744Z,47.15
2018-10-21T10:50:51.069Z,50.20
2018-10-21T10:53:19.359Z,47.67
2018-10-21T10:55:51.679Z,46.22
2018-10-21T10:58:20.105Z,48.92
2018-10-21T11:00:48.495Z,46.42
2018-10-21T11:03:16.778Z,46.02
2018-10-21T11:05:45.705Z,47.45
2018-10-21T11:08:14.109Z,46.45
2018-10-21T11:10:42.395Z,45.35
2018-10-21T11:13:10.768Z,47.27
2018-10-21T11:15:38.976Z,47.58
2018-10-21T11:18:07.360Z,47.62
2018-10-21T11:20:36.306Z,47.75
2018-10-21T11:23:05.192Z,43.58
2018-10-21T11:25:34.608Z,45.70
2018-10-21T11:28:03.210Z,45.35
2018-10-21T11:30:31.658Z,46.63
2018-10-21T11:32:59.950Z,48.17
2018-10-21T11:35:28.299Z,46.83
2018-10-21T11:37:56.883Z,46.73
2018-10-21T11:40:25.272Z,44.75
2018-10-21T11:42:53.588Z,44.85
2018-10-21T11:45:21.871Z,44.57
2018-10-21T11:47:50.167Z,45.28
2018-10-21T11:50:18.477Z,45.25
2018-10-21T11:52:47.036Z,42.38
2018-10-21T11:55:15.209Z,45.08
2018-10-21T11:57:43.443Z,43.48
2018-10-21T12:00:12.824Z,41.70
2018-10-21T12:02:41.156Z,43.38
2018-10-21T12:05:09.470Z,44.03
2018-10-21T12:07:37.777Z,41.83
2018-10-21T12:10:06.642Z,39.92
2018-10-21T12:12:34.930Z,41.95
2018-10-21T12:15:04.164Z,40.90
2018-10-21T12:17:32.481Z,41.37
2018-10-21T12:20:01.467Z,40.12
2018-10-21T12:22:29.797Z,40.03
2018-10-21T12:24:58.157Z,40.75
2018-10-21T12:27:26.484Z,38.88
2018-10-21T12:29:54.795Z,35.33
2018-10-21T12:32:23.393Z,37.45
2018-10-21T12:34:51.711Z,35.55
2018-10-21T12:37:20.030Z,35.92
2018-10-21T12:39:48.534Z,32.30
2018-10-21T12:42:17.228Z,30.35
2018-10-21T12:44:45.554Z,29.30
2018-10-21T12:47:13.918Z,29.52
2018-10-21T12:49:42.200Z,27.48
2018-10-21T12:52:10.593Z,27.67
2018-10-21T12:54:39.201Z,26.95
2018-10-21T12:57:07.998Z,28.50
2018-10-21T12:59:36.287Z,26.60
2018-10-21T13:02:05.596Z,25.68
2018-10-21T13:04:33.873Z,29.07
2018-10-21T13:07:02.573Z,24.98
2018-10-21T13:09:30.885Z,25.82
2018-10-21T13:11:59.193Z,24.70
2018-10-21T13:14:27.490Z,25.65
2018-10-21T13:16:55.807Z,25.25
2018-10-21T13:19:24.133Z,25.17
2018-10-21T13:21:52.438Z,25.72
2018-10-21T13:24:20.768Z,27.17
2018-10-21T13:26:49.933Z,25.00
2018-10-21T13:29:18.220Z,24.97
2018-10-21T13:31:46.503Z,25.25
2018-10-21T13:34:14.864Z,26.23
2018-10-21T13:36:43.113Z,26.20
2018-10-21T13:39:13.913Z,27.10
2018-10-21T13:41:43.129Z,25.52
2018-10-21T13:44:11.811Z,25.70
2018-10-21T13:46:40.969Z,26.62
2018-10-21T13:49:09.296Z,25.77
2018-10-21T13:51:37.833Z,30.50
2018-10-21T13:54:06.959Z,26.35
2018-10-21T13:56:35.317Z,25.95
2018-10-21T13:59:03.686Z,27.07
2018-10-21T14:01:32.399Z,25.75
2018-10-21T14:04:00.641Z,27.03
2018-10-21T14:06:30.411Z,25.15
2018-10-21T14:08:58.707Z,26.20
2018-10-21T14:11:26.996Z,23.52
2018-10-21T14:13:56.033Z,23.85
2018-10-21T14:16:24.447Z,23.07
2018-10-21T14:18:52.727Z,21.23
2018-10-21T14:21:21.008Z,20.77
2018-10-21T14:23:49.302Z,20.15
2018-10-21T14:26:18.817Z,19.95
2018-10-21T14:28:47.208Z,19.73
2018-10-21T14:31:15.645Z,18.27
2018-10-21T14:33:43.989Z,18.62
2018-10-21T14:36:12.433Z,16.97
2018-10-21T14:38:40.862Z,15.98
2018-10-21T14:41:09.559Z,17.12
2018-10-21T14:43:37.948Z,14.25
2018-10-21T14:46:06.612Z,12.55
2018-10-21T14:48:34.775Z,12.15
2018-10-21T14:51:03.261Z,10.38
2018-10-21T14:53:31.581Z,10.48
2018-10-21T14:55:59.960Z,9.80
2018-10-21T14:58:29.000Z,11.18
2018-10-21T15:00:57.314Z,10.30
2018-10-21T15:03:25.709Z,11.55
2018-10-21T15:05:54.221Z,12.17
2018-10-21T15:08:22.594Z,11.68
2018-10-21T15:10:50.916Z,12.68
2018-10-21T15:13:19.236Z,12.07
2018-10-21T15:15:47.685Z,15.10
2018-10-21T15:18:16.083Z,14.93
2018-10-21T15:20:44.810Z,13.05
2018-10-21T15:23:13.152Z,14.10
2018-10-21T15:25:41.807Z,14.13
2018-10-21T15:28:10.338Z,13.75
2018-10-21T15:30:38.625Z,13.55
2018-10-21T15:33:07.052Z,15.38
2018-10-21T15:35:35.413Z,14.55
2018-10-21T15:38:03.861Z,15.18
2018-10-21T15:40:32.339Z,13.98
2018-10-21T15:43:02.895Z,14.20
2018-10-21T15:45:31.205Z,13.90
2018-10-21T15:48:00.303Z,13.75
2018-10-21T15:50:28.627Z,13.95
2018-10-21T15:52:57.194Z,12.95
2018-10-21T15:55:25.926Z,13.13
2018-10-21T15:57:54.437Z,15.08
2018-10-21T16:00:23.481Z,15.03
2018-10-21T16:02:52.520Z,15.23
2018-10-21T16:05:20.968Z,15.83
2018-10-21T16:07:49.304Z,17.27
2018-10-21T16:10:18.690Z,17.40
2018-10-21T16:12:48.337Z,17.80
2018-10-21T16:15:16.999Z,17.23
2018-10-21T16:17:46.945Z,17.23
2018-10-21T16:20:15.395Z,16.75
2018-10-21T16:22:44.436Z,17.52
2018-10-21T16:25:14.992Z,19.02
2018-10-21T16:27:43.331Z,17.87
2018-10-21T16:30:14.103Z,18.37
2018-10-21T16:32:43.191Z,19.90
2018-10-21T16:35:12.000Z,18.75
2018-10-21T16:37:41.032Z,17.85
2018-10-21T16:40:15.376Z,17.87
2018-10-21T16:42:43.760Z,17.30
2018-10-21T16:45:13.050Z,17.30
2018-10-21T16:47:41.627Z,17.80
2018-10-21T16:50:12.097Z,17.87
2018-10-21T16:52:40.753Z,17.30
2018-10-21T16:55:10.093Z,17.57
2018-10-21T16:57:38.822Z,17.60
2018-10-21T17:00:10.075Z,18.30
2018-10-21T17:02:38.423Z,17.02
2018-10-21T17:05:07.108Z,17.98
2018-10-21T17:07:35.608Z,16.95
2018-10-21T17:10:04.247Z,19.05
2018-10-21T17:12:32.412Z,17.50
2018-10-21T17:15:01.213Z,18.57
2018-10-21T17:17:29.642Z,17.70
2018-10-21T17:19:59.002Z,19.02
2018-10-21T17:22:27.613Z,17.17
2018-10-21T17:24:56.006Z,18.45
2018-10-21T17:27:27.768Z,17.37
2018-10-21T17:29:58.143Z,17.10
2018-10-21T17:32:27.353Z,17.70
2018-10-21T17:34:55.724Z,17.10
2018-10-21T17:37:24.388Z,17.75
2018-10-21T17:39:52.757Z,18.57
2018-10-21T17:42:21.274Z,19.60
2018-10-21T17:44:50.663Z,17.82
2018-10-21T17:47:20.716Z,18.10
2018-10-21T17:49:49.278Z,15.65
2018-10-21T17:52:18.311Z,13.75
2018-10-21T17:54:46.639Z,14.70
2018-10-21T17:57:14.999Z,14.40
2018-10-21T17:59:43.770Z,13.55
2018-10-21T18:02:13.515Z,15.00
2018-10-21T18:04:43.473Z,14.60
2018-10-21T18:07:11.826Z,13.77
2018-10-21T18:09:45.925Z,14.00
2018-10-21T18:12:14.893Z,14.15
2018-10-21T18:14:43.314Z,13.48
2018-10-21T18:17:11.739Z,14.20
2018-10-21T18:19:41.122Z,14.43
2018-10-21T18:22:10.074Z,15.93
2018-10-21T18:24:39.813Z,16.07
2018-10-21T18:27:10.860Z,16.95
2018-10-21T18:29:40.012Z,17.42
2018-10-21T18:32:08.720Z,17.90
2018-10-21T18:39:31.620Z,17.87
2018-10-21T18:42:00.553Z,17.87
2018-10-21T18:44:28.857Z,19.17
2018-10-21T18:46:57.491Z,19.90
2018-10-21T18:49:25.896Z,19.67
2018-10-21T18:51:54.394Z,21.62
2018-10-21T18:54:24.096Z,20.77
2018-10-21T18:56:53.869Z,21.33
2018-10-21T18:59:22.219Z,21.27
2018-10-21T19:01:50.710Z,21.57
2018-10-21T19:04:19.109Z,23.60
2018-10-21T19:06:47.413Z,23.37
2018-10-21T19:09:22.155Z,25.97
2018-10-21T19:11:51.620Z,23.83
2018-10-21T19:14:22.072Z,23.78
2018-10-21T19:16:51.158Z,22.50
2018-10-21T19:19:19.508Z,24.77
2018-10-21T19:21:48.170Z,25.10
2018-10-21T19:24:17.888Z,26.17
2018-10-21T19:26:46.201Z,26.65
2018-10-21T19:29:15.089Z,23.65
2018-10-21T19:31:43.431Z,26.13
2018-10-21T19:34:12.325Z,27.30
2018-10-21T19:36:40.680Z,26.63
2018-10-21T19:39:10.947Z,27.83
2018-10-21T19:41:39.976Z,26.67
2018-10-21T19:44:10.387Z,28.57
2018-10-21T19:46:38.848Z,26.23
2018-10-21T19:49:08.868Z,26.37
2018-10-21T19:51:37.693Z,40.57
2018-10-21T19:54:06.291Z,27.33
2018-10-21T19:56:34.683Z,27.03
2018-10-21T19:59:05.242Z,25.83
2018-10-21T20:01:33.852Z,26.43
2018-10-21T20:04:02.208Z,25.27
2018-10-21T20:06:31.094Z,27.07
2018-10-21T20:08:59.441Z,26.10
2018-10-21T20:11:27.776Z,25.47
2018-10-21T20:13:56.313Z,26.83
2018-10-21T20:16:24.881Z,24.87
2018-10-21T20:18:54.161Z,26.00
2018-10-21T20:21:22.897Z,28.10
2018-10-21T20:23:51.230Z,26.33
2018-10-21T20:26:19.671Z,25.57
2018-10-21T20:28:48.243Z,24.80
2018-10-21T20:31:16.586Z,26.67
2018-10-21T20:33:44.945Z,24.57
2018-10-21T20:36:14.037Z,25.43
2018-10-21T20:38:42.348Z,23.05
2018-10-21T20:41:10.798Z,24.10
2018-10-21T20:43:39.135Z,24.07
2018-10-21T20:46:07.534Z,23.00
2018-10-21T20:48:36.210Z,23.38
2018-10-21T20:51:04.811Z,24.37
2018-10-21T20:53:33.083Z,26.17
2018-10-21T20:56:02.769Z,26.30
2018-10-21T20:58:31.381Z,24.27
2018-10-21T21:00:59.759Z,25.13
2018-10-21T21:03:28.052Z,25.60
2018-10-21T21:05:56.459Z,25.02
2018-10-21T21:08:24.819Z,25.92
2018-10-21T21:10:53.243Z,27.07
2018-10-21T21:13:21.543Z,25.97
2018-10-21T21:15:49.867Z,27.90
2018-10-21T21:18:18.183Z,24.57
2018-10-21T21:20:46.701Z,27.37
2018-10-21T21:23:14.926Z,28.20
2018-10-21T21:25:43.273Z,26.90
2018-10-21T21:28:11.610Z,26.00
2018-10-21T21:30:40.024Z,28.85
2018-10-21T21:33:08.598Z,27.55
2018-10-21T21:35:36.883Z,29.10
2018-10-21T21:38:05.462Z,28.55
2018-10-21T21:40:33.744Z,28.17
2018-10-21T21:43:02.025Z,27.98
2018-10-21T21:45:30.308Z,27.42
2018-10-21T21:47:58.568Z,28.02
2018-10-21T21:50:26.921Z,27.85
2018-10-21T21:52:55.165Z,27.30
2018-10-21T21:55:23.432Z,28.45
2018-10-21T21:57:51.702Z,28.45
2018-10-21T22:00:19.951Z,27.48
2018-10-21T22:02:48.255Z,29.40
2018-10-21T22:05:16.511Z,29.03
2018-10-21T22:07:44.813Z,30.95
2018-10-21T22:10:13.846Z,32.35
2018-10-21T22:12:42.780Z,31.15
2018-10-21T22:15:11.009Z,30.17
2018-10-21T22:17:39.893Z,31.48
2018-10-21T22:20:08.148Z,31.15
2018-10-21T22:22:36.400Z,31.37
2018-10-21T22:25:05.027Z,30.92
2018-10-21T22:27:33.315Z,32.55
2018-10-21T22:30:01.632Z,31.70
2018-10-21T22:32:29.854Z,31.02
2018-10-21T22:34:58.101Z,31.77
2018-10-21T22:37:26.348Z,32.25
2018-10-21T22:39:55.084Z,31.35
2018-10-21T22:42:23.319Z,31.60
2018-10-21T22:44:51.703Z,32.08
2018-10-21T22:47:19.979Z,31.97
2018-10-21T22:49:48.195Z,30.87
2018-10-21T22:52:16.587Z,31.87
2018-10-21T22:54:44.704Z,30.95
2018-10-21T22:57:17.684Z,32.15
2018-10-21T22:59:47.092Z,31.12
2018-10-21T23:02:15.636Z,33.70
2018-10-21T23:04:44.200Z,32.13
2018-10-21T23:07:12.451Z,31.50
2018-10-21T23:09:40.707Z,30.97
2018-10-21T23:12:09.220Z,32.33
2018-10-21T23:14:37.744Z,34.05
2018-10-21T23:17:05.981Z,32.13
2018-10-21T23:19:40.543Z,33.13
2018-10-21T23:22:08.844Z,33.75
2018-10-21T23:24:37.739Z,34.17
2018-10-21T23:27:06.150Z,33.15
2018-10-21T23:29:34.396Z,36.03
2018-10-21T23:32:02.616Z,33.23
2018-10-21T23:34:30.838Z,33.40
2018-10-21T23:36:59.087Z,35.58
2018-10-21T23:39:28.056Z,33.60
2018-10-21T23:41:56.459Z,33.40
2018-10-21T23:44:24.707Z,34.40
2018-10-21T23:46:53.088Z,34.38
2018-10-21T23:49:21.339Z,35.10
2018-10-21T23:51:49.617Z,35.20
2018-10-21T23:54:17.972Z,37.53
2018-10-21T23:56:46.153Z,36.57
2018-10-21T23:59:14.376Z,34.95
